Flight Briefing for CPX237

Departure Arrival
March Air Reserve Base (KRIV)
Click to view FAA NOTAMS
Washington Dulles International Airport (KIAD)
Click to view FAA NOTAMS
Departure Time Arrival Time
N/A N/A
Aircraft Distance
B767-300BDSF 1970nm
Departure METAR Arrival METAR
KRIV 152117Z 32005KT 10SM SCT030 BKN060 BKN250 13/08 A3008 RMK AO2A SLP186 KIAD 152052Z 20013KT 10SM FEW045 SCT140 BKN200 16/04 A2964 RMK AO2 SLP035 T01560039 56010
Suggested Route
TRM PKE J78 DRK J96 GUP J8 FTI MMB PER SGF J98 FAM J78 HVQ GIBBZ2


View recent IFR Routes data
Notes



Charts and Procedures

Charts for KRIV
No chart available
Charts for KIAD
No chart available

Ventusky Weather